Airfield :
LOGIN :

Register | Disclaimer

   EN    FR    IT 

 










Legend :    VFR   Marginal VFR   IFR   Intensive IFR   Very Intensive IFR
Visi :
Ceiling :
>= 8 km
>= 3000ft
5 to 8 km
1000 to 3000 ft
1500m to 5 km
500 to 1000 ft
800 to 1500m
200 to 500 ft
< 800m
< 200 ft
Symbols :   Thunderstorms  Fog  Heavy snow  Heavy precipitations  Wind > 20 kt
SIGMETs :     Misc.  Thunderstorms  Icing  Turbulence  Mountain Waves  Volcanic Ashes







- Airport Elevation : 3 ft
- IATA code : LWR


EHLW - Leuuwarden Air Base

CURRENT METAR :
  • 160837Z AUTO 28010G22KT 250V310 9999 -UP FEW015CB SCT024 BKN028 04/02 Q1007 WHT

EXPIRED METARs :
  • 160825Z AUTO 29009KT 9999 FEW039 03/01 Q1007 BLU
  • 160755Z AUTO 29012KT 260V320 9999 FEW015CB 03/01 Q1006 BLU
  • 160729Z AUTO 30010KT 9999 -UP FEW015CB SCT028 BKN031 03/01 Q1006 BLU
  • 160716Z AUTO 29009KT 9999 RA FEW022 SCT029 03/01 Q1006 BLU
  • 160706Z AUTO 29008KT 9999 FEW015CB 03/01 Q1006 BLU
  • 160655Z AUTO 29007KT 9999 FEW015CB SCT041 03/02 Q1006 RERA BLU
  • 160643Z AUTO 29009KT 260V320 9999 FEW015CB BKN040 OVC050 03/02 Q1006 BLU
  • 160637Z AUTO 30011KT 270V350 9999 -SHRA FEW011 FEW015CB SCT025 BKN036 03/02 Q1006 BLU
  • 160629Z AUTO 31012KT 270V350 5000 -RA FEW015CB SCT021 BKN024 BKN034 03/01 Q1006 WHT
  • 160555Z AUTO 30008KT 9999 NCD 03/01 Q1005 BLU

TAF TAF EHLW
Valid from the 16 at 06:00 until the 16 at 18:00 UTC


160521Z 1606/1618 31010KT 9999 SCT025
TEMPO 1606/1618 FEW020CB SCT025
PROB40
TEMPO 1606/1618 32010G20KT 4000 SHRASNGS SCT012 SCT018CB BKN025
No reported NOTAMs for that airfield.



MET'MAP, your aeronautical weather chart ! - Copyright ORBIFLY December 2007 - Disclaimer

ORBIFLY MET'MAP TEAM :

Programming & Development : Alexandra Zaïnal
Concept & Development : Baudouin d'Aumeries
Co-Development & Prog : Marc-Olivier Méhu
Technical & hardware support : Manuel Goepfert

Contact : metmap@orbifly.com




SOURCES & CREDITS :

   NOAA